SHT4F EGLL-EGAC
Flight info
| Callsign | SHT4F |
|---|---|
| Flight time | 0h 57m |
| Altitude | 34000 |
| Route | ULTIB1J ULTIB T420 TNT UL28 RODOL UM65 TENSO L603 BELOX DCT REMSI DCT NINEB M148 MAGEE DCT |
| Aircraft | A320/M-SDE3FGHIRWXY/S |
Departure
| Time | 2026-04-25 15:59 |
|---|---|
| Airport | London Heathrow Airport (EGLL) |
Arrival
| Time | 2026-04-25 16:56 |
|---|---|
| Airport | George Best Belfast City Airport (EGAC) |
| Time | Latitude | Longitude | Altitude | Speed | Heading |
|---|---|---|---|---|---|
| 2026-04-25 15:21 | 51.47404 | -0.48891 | 91 ft | 0 kts | 179° |
| 2026-04-25 15:46 | 51.47426 | -0.48891 | 87 ft | 4 kts | 179° |
| 2026-04-25 15:46 | 51.47453 | -0.48891 | 88 ft | 3 kts | 179° |
| 2026-04-25 15:46 | 51.47474 | -0.48893 | 86 ft | 4 kts | 160° |
| 2026-04-25 15:46 | 51.47495 | -0.48914 | 89 ft | 2 kts | 135° |
| 2026-04-25 15:47 | 51.47509 | -0.48936 | 90 ft | 1 kts | 134° |
| 2026-04-25 15:47 | 51.47509 | -0.48937 | 90 ft | 0 kts | 134° |
| 2026-04-25 15:52 | 51.47504 | -0.48928 | 91 ft | 4 kts | 132° |
| 2026-04-25 15:53 | 51.47486 | -0.48847 | 88 ft | 11 kts | 94° |
| 2026-04-25 15:53 | 51.47487 | -0.48701 | 88 ft | 14 kts | 90° |
| 2026-04-25 15:53 | 51.47487 | -0.48529 | 87 ft | 16 kts | 92° |
| 2026-04-25 15:53 | 51.47391 | -0.48474 | 86 ft | 17 kts | 179° |
| 2026-04-25 15:54 | 51.47264 | -0.48473 | 86 ft | 19 kts | 180° |
| 2026-04-25 15:54 | 51.47122 | -0.48472 | 88 ft | 21 kts | 179° |
| 2026-04-25 15:54 | 51.46965 | -0.48470 | 87 ft | 23 kts | 180° |
| 2026-04-25 15:54 | 51.46843 | -0.48469 | 86 ft | 17 kts | 179° |
| 2026-04-25 15:55 | 51.46825 | -0.48469 | 86 ft | 0 kts | 179° |
| 2026-04-25 15:56 | 51.46803 | -0.48468 | 86 ft | 5 kts | 179° |
| 2026-04-25 15:56 | 51.46740 | -0.48468 | 86 ft | 12 kts | 180° |
| 2026-04-25 15:57 | 51.46650 | -0.48467 | 86 ft | 14 kts | 180° |
| 2026-04-25 15:57 | 51.46546 | -0.48467 | 86 ft | 16 kts | 180° |
| 2026-04-25 15:57 | 51.46481 | -0.48425 | 88 ft | 11 kts | 112° |
| 2026-04-25 15:57 | 51.46479 | -0.48377 | 87 ft | 0 kts | 89° |
| 2026-04-25 15:58 | 51.46479 | -0.48348 | 87 ft | 14 kts | 89° |
| 2026-04-25 15:58 | 51.46481 | -0.47786 | 86 ft | 85 kts | 90° |
| 2026-04-25 15:58 | 51.46485 | -0.46529 | 92 ft | 138 kts | 90° |
| 2026-04-25 15:58 | 51.46494 | -0.44749 | 133 ft | 175 kts | 89° |
| 2026-04-25 15:59 | 51.46511 | -0.42854 | 758 ft | 174 kts | 89° |
| 2026-04-25 15:59 | 51.46763 | -0.40946 | 1311 ft | 179 kts | 59° |
| 2026-04-25 15:59 | 51.47570 | -0.39324 | 1685 ft | 195 kts | 49° |
| 2026-04-25 15:59 | 51.48493 | -0.37567 | 1964 ft | 218 kts | 50° |
| 2026-04-25 16:00 | 51.49520 | -0.35563 | 2236 ft | 246 kts | 50° |
| 2026-04-25 16:00 | 51.49895 | -0.34837 | 2386 ft | 254 kts | 50° |
| 2026-04-25 16:00 | 51.51805 | -0.31150 | 3843 ft | 261 kts | 53° |
| 2026-04-25 16:00 | 51.52619 | -0.28531 | 4726 ft | 266 kts | 70° |
| 2026-04-25 16:01 | 51.53298 | -0.25749 | 5572 ft | 271 kts | 60° |
| 2026-04-25 16:01 | 51.54526 | -0.23477 | 5901 ft | 271 kts | 34° |
| 2026-04-25 16:01 | 51.56257 | -0.22368 | 5990 ft | 269 kts | 6° |
| 2026-04-25 16:01 | 51.58095 | -0.22709 | 6006 ft | 268 kts | 341° |
| 2026-04-25 16:02 | 51.59887 | -0.23568 | 6055 ft | 269 kts | 347° |
| 2026-04-25 16:02 | 51.61700 | -0.24284 | 6064 ft | 269 kts | 341° |
| 2026-04-25 16:02 | 51.63403 | -0.25532 | 6063 ft | 269 kts | 332° |
| 2026-04-25 16:02 | 51.65045 | -0.26981 | 6067 ft | 269 kts | 330° |
| 2026-04-25 16:03 | 51.66663 | -0.28493 | 6069 ft | 269 kts | 329° |
| 2026-04-25 16:03 | 51.68253 | -0.30014 | 6068 ft | 269 kts | 329° |
| 2026-04-25 16:03 | 51.69877 | -0.31585 | 6067 ft | 269 kts | 329° |
| 2026-04-25 16:03 | 51.71487 | -0.33144 | 6066 ft | 269 kts | 329° |
| 2026-04-25 16:04 | 51.73092 | -0.34699 | 6065 ft | 269 kts | 329° |
| 2026-04-25 16:04 | 51.74697 | -0.36252 | 6069 ft | 269 kts | 329° |
| 2026-04-25 16:04 | 51.76306 | -0.37812 | 6062 ft | 269 kts | 329° |
| 2026-04-25 16:04 | 51.77910 | -0.39368 | 6010 ft | 269 kts | 329° |
| 2026-04-25 16:05 | 51.79518 | -0.40925 | 6091 ft | 272 kts | 329° |
| 2026-04-25 16:05 | 51.81125 | -0.42479 | 6948 ft | 273 kts | 329° |
| 2026-04-25 16:05 | 51.84409 | -0.45665 | 8635 ft | 278 kts | 329° |
| 2026-04-25 16:06 | 51.86077 | -0.47288 | 9446 ft | 282 kts | 328° |
| 2026-04-25 16:06 | 51.87770 | -0.48936 | 10220 ft | 286 kts | 328° |
| 2026-04-25 16:06 | 51.89526 | -0.50647 | 10587 ft | 305 kts | 328° |
| 2026-04-25 16:06 | 51.91414 | -0.52488 | 10762 ft | 328 kts | 328° |
| 2026-04-25 16:07 | 51.93407 | -0.54434 | 11229 ft | 338 kts | 328° |
| 2026-04-25 16:07 | 51.94085 | -0.55103 | 11445 ft | 340 kts | 327° |
| 2026-04-25 16:07 | 51.97242 | -0.58963 | 12606 ft | 344 kts | 321° |
| 2026-04-25 16:07 | 51.99129 | -0.61383 | 13311 ft | 347 kts | 321° |
| 2026-04-25 16:08 | 52.01032 | -0.63819 | 14008 ft | 349 kts | 321° |
| 2026-04-25 16:08 | 52.02950 | -0.66268 | 14625 ft | 352 kts | 321° |
| 2026-04-25 16:08 | 52.04993 | -0.68477 | 15220 ft | 356 kts | 330° |
| 2026-04-25 16:08 | 52.07185 | -0.70395 | 15813 ft | 359 kts | 331° |
| 2026-04-25 16:09 | 52.09404 | -0.72303 | 16397 ft | 362 kts | 331° |
| 2026-04-25 16:09 | 52.11610 | -0.74194 | 16972 ft | 365 kts | 331° |
| 2026-04-25 16:09 | 52.13868 | -0.76129 | 17577 ft | 368 kts | 331° |
| 2026-04-25 16:09 | 52.16143 | -0.78077 | 18168 ft | 371 kts | 331° |
| 2026-04-25 16:10 | 52.18440 | -0.80041 | 18737 ft | 374 kts | 331° |
| 2026-04-25 16:10 | 52.20756 | -0.82020 | 19270 ft | 377 kts | 331° |
| 2026-04-25 16:10 | 52.23093 | -0.84012 | 19812 ft | 380 kts | 331° |
| 2026-04-25 16:10 | 52.25450 | -0.86016 | 20350 ft | 384 kts | 331° |
| 2026-04-25 16:11 | 52.27832 | -0.88037 | 20877 ft | 387 kts | 331° |
| 2026-04-25 16:11 | 52.30237 | -0.90074 | 21374 ft | 392 kts | 331° |
| 2026-04-25 16:11 | 52.32671 | -0.92136 | 21858 ft | 395 kts | 331° |
| 2026-04-25 16:11 | 52.35125 | -0.94212 | 22342 ft | 399 kts | 331° |
| 2026-04-25 16:12 | 52.37602 | -0.96305 | 22826 ft | 402 kts | 331° |
| 2026-04-25 16:12 | 52.40068 | -0.98387 | 23300 ft | 405 kts | 331° |
| 2026-04-25 16:12 | 52.42584 | -1.00511 | 23776 ft | 408 kts | 331° |
| 2026-04-25 16:12 | 52.43436 | -1.01229 | 23936 ft | 408 kts | 331° |
| 2026-04-25 16:13 | 52.47638 | -1.04773 | 24639 ft | 410 kts | 331° |
| 2026-04-25 16:13 | 52.50189 | -1.06930 | 25029 ft | 413 kts | 331° |
| 2026-04-25 16:13 | 52.52747 | -1.09098 | 25400 ft | 415 kts | 331° |
| 2026-04-25 16:13 | 52.55306 | -1.11336 | 25746 ft | 417 kts | 327° |
| 2026-04-25 16:14 | 52.57757 | -1.13897 | 26103 ft | 419 kts | 325° |
| 2026-04-25 16:14 | 52.60198 | -1.16542 | 26464 ft | 421 kts | 324° |
| 2026-04-25 16:14 | 52.62640 | -1.19244 | 26812 ft | 423 kts | 324° |
| 2026-04-25 16:14 | 52.65086 | -1.21976 | 27164 ft | 426 kts | 324° |
| 2026-04-25 16:15 | 52.67543 | -1.24720 | 27509 ft | 428 kts | 324° |
| 2026-04-25 16:15 | 52.70018 | -1.27480 | 27860 ft | 430 kts | 324° |
| 2026-04-25 16:15 | 52.72506 | -1.30243 | 28209 ft | 432 kts | 324° |
| 2026-04-25 16:15 | 52.75007 | -1.33019 | 28577 ft | 435 kts | 324° |
| 2026-04-25 16:16 | 52.77526 | -1.35814 | 28915 ft | 437 kts | 325° |
| 2026-04-25 16:16 | 52.80025 | -1.38589 | 29223 ft | 440 kts | 325° |
| 2026-04-25 16:16 | 52.82570 | -1.41416 | 29543 ft | 442 kts | 325° |
| 2026-04-25 16:16 | 52.85131 | -1.44264 | 29936 ft | 442 kts | 324° |
| 2026-04-25 16:17 | 52.87684 | -1.47111 | 30399 ft | 441 kts | 324° |
| 2026-04-25 16:17 | 52.90226 | -1.49949 | 30800 ft | 440 kts | 324° |
| 2026-04-25 16:17 | 52.92760 | -1.52782 | 31196 ft | 439 kts | 324° |
| 2026-04-25 16:17 | 52.95289 | -1.55620 | 31602 ft | 438 kts | 324° |
| 2026-04-25 16:18 | 52.97810 | -1.58457 | 32005 ft | 438 kts | 324° |
| 2026-04-25 16:18 | 53.02856 | -1.64139 | 32198 ft | 439 kts | 324° |
| 2026-04-25 16:19 | 53.07933 | -1.69773 | 32198 ft | 439 kts | 326° |
| 2026-04-25 16:19 | 53.13096 | -1.75125 | 32198 ft | 439 kts | 327° |
| 2026-04-25 16:20 | 53.20917 | -1.83136 | 32193 ft | 439 kts | 327° |
| 2026-04-25 16:21 | 53.28770 | -1.91084 | 32197 ft | 440 kts | 329° |
| 2026-04-25 16:21 | 53.34133 | -1.96063 | 32197 ft | 440 kts | 330° |
| 2026-04-25 16:22 | 53.39489 | -2.01037 | 32196 ft | 440 kts | 329° |
| 2026-04-25 16:22 | 53.44824 | -2.06101 | 32204 ft | 440 kts | 329° |
| 2026-04-25 16:23 | 53.50148 | -2.11221 | 32204 ft | 440 kts | 329° |
| 2026-04-25 16:23 | 53.55409 | -2.16341 | 32204 ft | 439 kts | 325° |
| 2026-04-25 16:24 | 53.59871 | -2.23273 | 32204 ft | 436 kts | 306° |
| 2026-04-25 16:24 | 53.62333 | -2.30629 | 32204 ft | 434 kts | 290° |
| 2026-04-25 16:25 | 53.64154 | -2.38590 | 32204 ft | 435 kts | 290° |
| 2026-04-25 16:25 | 53.66685 | -2.49650 | 32204 ft | 435 kts | 290° |
| 2026-04-25 16:26 | 53.68852 | -2.59177 | 32204 ft | 435 kts | 290° |
| 2026-04-25 16:26 | 53.71008 | -2.68693 | 32211 ft | 433 kts | 290° |
| 2026-04-25 16:27 | 53.73140 | -2.78150 | 32210 ft | 434 kts | 290° |
| 2026-04-25 16:27 | 53.75277 | -2.87689 | 32220 ft | 434 kts | 290° |
| 2026-04-25 16:28 | 53.77411 | -2.97239 | 32220 ft | 434 kts | 290° |
| 2026-04-25 16:28 | 53.79538 | -3.06798 | 32220 ft | 434 kts | 289° |
| 2026-04-25 16:29 | 53.81651 | -3.16371 | 32223 ft | 434 kts | 289° |
| 2026-04-25 16:29 | 53.83754 | -3.25933 | 32219 ft | 433 kts | 289° |
| 2026-04-25 16:30 | 53.85853 | -3.35486 | 32217 ft | 433 kts | 289° |
| 2026-04-25 16:30 | 53.87944 | -3.45053 | 32218 ft | 433 kts | 289° |
| 2026-04-25 16:31 | 53.90009 | -3.54572 | 32219 ft | 433 kts | 289° |
| 2026-04-25 16:31 | 53.92083 | -3.64183 | 32215 ft | 433 kts | 289° |
| 2026-04-25 16:32 | 53.94149 | -3.73786 | 32220 ft | 432 kts | 289° |
| 2026-04-25 16:32 | 53.96319 | -3.83313 | 32212 ft | 433 kts | 296° |
| 2026-04-25 16:33 | 53.99308 | -3.92232 | 32214 ft | 434 kts | 298° |
| 2026-04-25 16:33 | 54.02318 | -4.01138 | 32214 ft | 434 kts | 298° |
| 2026-04-25 16:34 | 54.05292 | -4.10010 | 32219 ft | 434 kts | 298° |
| 2026-04-25 16:34 | 54.06878 | -4.14387 | 31942 ft | 436 kts | 304° |
| 2026-04-25 16:34 | 54.08639 | -4.18609 | 31685 ft | 437 kts | 304° |
| 2026-04-25 16:34 | 54.10397 | -4.22834 | 31442 ft | 436 kts | 304° |
| 2026-04-25 16:35 | 54.12143 | -4.27048 | 31195 ft | 434 kts | 303° |
| 2026-04-25 16:35 | 54.13875 | -4.31246 | 30946 ft | 431 kts | 303° |
| 2026-04-25 16:35 | 54.15596 | -4.35421 | 30700 ft | 429 kts | 303° |
| 2026-04-25 16:35 | 54.17311 | -4.39585 | 30444 ft | 426 kts | 303° |
| 2026-04-25 16:36 | 54.19005 | -4.43707 | 29879 ft | 422 kts | 303° |
| 2026-04-25 16:36 | 54.19574 | -4.45092 | 29687 ft | 421 kts | 303° |
| 2026-04-25 16:36 | 54.22341 | -4.51837 | 28787 ft | 413 kts | 303° |
| 2026-04-25 16:36 | 54.23986 | -4.55853 | 28252 ft | 410 kts | 303° |
| 2026-04-25 16:37 | 54.25616 | -4.59835 | 27713 ft | 406 kts | 303° |
| 2026-04-25 16:37 | 54.27227 | -4.63779 | 27187 ft | 403 kts | 303° |
| 2026-04-25 16:37 | 54.28824 | -4.67697 | 26664 ft | 400 kts | 303° |
| 2026-04-25 16:37 | 54.30386 | -4.71541 | 26164 ft | 397 kts | 303° |
| 2026-04-25 16:38 | 54.31956 | -4.75414 | 25657 ft | 395 kts | 303° |
| 2026-04-25 16:38 | 54.33522 | -4.79285 | 25166 ft | 392 kts | 303° |
| 2026-04-25 16:38 | 54.35074 | -4.83124 | 24681 ft | 391 kts | 302° |
| 2026-04-25 16:38 | 54.36622 | -4.86951 | 24216 ft | 389 kts | 302° |
| 2026-04-25 16:39 | 54.38157 | -4.90754 | 23745 ft | 387 kts | 302° |
| 2026-04-25 16:39 | 54.39687 | -4.94550 | 23243 ft | 385 kts | 302° |
| 2026-04-25 16:39 | 54.41201 | -4.98323 | 22790 ft | 382 kts | 302° |
| 2026-04-25 16:39 | 54.42702 | -5.02070 | 22342 ft | 379 kts | 302° |
| 2026-04-25 16:40 | 54.44192 | -5.05796 | 21890 ft | 376 kts | 302° |
| 2026-04-25 16:40 | 54.45658 | -5.09437 | 21439 ft | 374 kts | 302° |
| 2026-04-25 16:40 | 54.47135 | -5.13088 | 20974 ft | 371 kts | 302° |
| 2026-04-25 16:40 | 54.48608 | -5.16718 | 20507 ft | 369 kts | 302° |
| 2026-04-25 16:41 | 54.50065 | -5.20340 | 20034 ft | 368 kts | 302° |
| 2026-04-25 16:41 | 54.51042 | -5.22781 | 19728 ft | 366 kts | 302° |
| 2026-04-25 16:41 | 54.54354 | -5.31049 | 18113 ft | 356 kts | 302° |
| 2026-04-25 16:42 | 54.55758 | -5.34550 | 17176 ft | 353 kts | 302° |
| 2026-04-25 16:42 | 54.57146 | -5.38014 | 16283 ft | 350 kts | 302° |
| 2026-04-25 16:42 | 54.58489 | -5.41478 | 15438 ft | 344 kts | 296° |
| 2026-04-25 16:42 | 54.59243 | -5.45302 | 14645 ft | 334 kts | 274° |
| 2026-04-25 16:43 | 54.59085 | -5.49216 | 13824 ft | 325 kts | 251° |
| 2026-04-25 16:43 | 54.58062 | -5.52619 | 12918 ft | 319 kts | 229° |
| 2026-04-25 16:43 | 54.56351 | -5.54980 | 12083 ft | 315 kts | 205° |
| 2026-04-25 16:43 | 54.54274 | -5.55909 | 11285 ft | 313 kts | 181° |
| 2026-04-25 16:44 | 54.52186 | -5.55390 | 11065 ft | 293 kts | 171° |
| 2026-04-25 16:44 | 54.50213 | -5.55336 | 10635 ft | 280 kts | 192° |
| 2026-04-25 16:44 | 54.48315 | -5.56025 | 10041 ft | 277 kts | 190° |
| 2026-04-25 16:44 | 54.46412 | -5.56536 | 9405 ft | 275 kts | 189° |
| 2026-04-25 16:45 | 54.44526 | -5.57017 | 8787 ft | 273 kts | 191° |
| 2026-04-25 16:45 | 54.42793 | -5.58209 | 8171 ft | 268 kts | 217° |
| 2026-04-25 16:45 | 54.41610 | -5.60630 | 7571 ft | 266 kts | 245° |
| 2026-04-25 16:45 | 54.41089 | -5.63626 | 7204 ft | 255 kts | 253° |
| 2026-04-25 16:46 | 54.40528 | -5.66447 | 6861 ft | 245 kts | 245° |
| 2026-04-25 16:46 | 54.39736 | -5.69020 | 6380 ft | 242 kts | 239° |
| 2026-04-25 16:46 | 54.38914 | -5.71495 | 6023 ft | 233 kts | 242° |
| 2026-04-25 16:46 | 54.38675 | -5.72293 | 5906 ft | 231 kts | 243° |
| 2026-04-25 16:47 | 54.37520 | -5.76431 | 5082 ft | 227 kts | 247° |
| 2026-04-25 16:47 | 54.37026 | -5.78973 | 4536 ft | 228 kts | 256° |
| 2026-04-25 16:47 | 54.36795 | -5.81662 | 4220 ft | 227 kts | 268° |
| 2026-04-25 16:47 | 54.36870 | -5.84356 | 4016 ft | 224 kts | 276° |
| 2026-04-25 16:48 | 54.37113 | -5.87008 | 4014 ft | 222 kts | 281° |
| 2026-04-25 16:48 | 54.37447 | -5.89518 | 4015 ft | 212 kts | 281° |
| 2026-04-25 16:48 | 54.37721 | -5.91979 | 4013 ft | 205 kts | 279° |
| 2026-04-25 16:48 | 54.37952 | -5.94304 | 4012 ft | 192 kts | 279° |
| 2026-04-25 16:49 | 54.38169 | -5.96535 | 4017 ft | 188 kts | 278° |
| 2026-04-25 16:49 | 54.38391 | -5.98739 | 4016 ft | 187 kts | 278° |
| 2026-04-25 16:49 | 54.38616 | -6.00922 | 4045 ft | 186 kts | 279° |
| 2026-04-25 16:49 | 54.38834 | -6.03087 | 4018 ft | 187 kts | 279° |
| 2026-04-25 16:50 | 54.39114 | -6.05250 | 4012 ft | 185 kts | 283° |
| 2026-04-25 16:50 | 54.39529 | -6.07344 | 4014 ft | 186 kts | 294° |
| 2026-04-25 16:50 | 54.40188 | -6.09261 | 4004 ft | 188 kts | 313° |
| 2026-04-25 16:50 | 54.41332 | -6.10246 | 4003 ft | 183 kts | 354° |
| 2026-04-25 16:51 | 54.42510 | -6.09737 | 4004 ft | 175 kts | 31° |
| 2026-04-25 16:51 | 54.43530 | -6.08595 | 4082 ft | 175 kts | 31° |
| 2026-04-25 16:51 | 54.44595 | -6.07554 | 4128 ft | 177 kts | 25° |
| 2026-04-25 16:51 | 54.44951 | -6.07237 | 4081 ft | 177 kts | 27° |
| 2026-04-25 16:52 | 54.46702 | -6.05189 | 3497 ft | 187 kts | 35° |
| 2026-04-25 16:52 | 54.47781 | -6.03943 | 3220 ft | 187 kts | 32° |
| 2026-04-25 16:52 | 54.48870 | -6.02709 | 2941 ft | 186 kts | 34° |
| 2026-04-25 16:52 | 54.49904 | -6.01469 | 2688 ft | 177 kts | 35° |
| 2026-04-25 16:53 | 54.51876 | -5.99107 | 2244 ft | 171 kts | 36° |
| 2026-04-25 16:53 | 54.52852 | -5.97941 | 2038 ft | 173 kts | 36° |
| 2026-04-25 16:53 | 54.53839 | -5.96781 | 1930 ft | 172 kts | 35° |
| 2026-04-25 16:54 | 54.54825 | -5.95610 | 1662 ft | 168 kts | 37° |
| 2026-04-25 16:54 | 54.55751 | -5.94496 | 1391 ft | 158 kts | 36° |
| 2026-04-25 16:54 | 54.56640 | -5.93453 | 1102 ft | 151 kts | 37° |
| 2026-04-25 16:54 | 54.57487 | -5.92433 | 911 ft | 147 kts | 38° |
| 2026-04-25 16:55 | 54.58323 | -5.91441 | 748 ft | 146 kts | 38° |
| 2026-04-25 16:55 | 54.59141 | -5.90445 | 561 ft | 143 kts | 40° |
| 2026-04-25 16:55 | 54.59959 | -5.89464 | 330 ft | 142 kts | 38° |
| 2026-04-25 16:55 | 54.60773 | -5.88516 | 155 ft | 140 kts | 39° |
| 2026-04-25 16:56 | 54.61551 | -5.87546 | 24 ft | 126 kts | 34° |
| 2026-04-25 16:56 | 54.62138 | -5.86860 | 22 ft | 77 kts | 34° |
| 2026-04-25 16:56 | 54.62383 | -5.86567 | 26 ft | 16 kts | 38° |
| 2026-04-25 16:56 | 54.62440 | -5.86427 | 24 ft | 13 kts | 24° |
| 2026-04-25 16:57 | 54.62443 | -5.86504 | 24 ft | 11 kts | 210° |
| 2026-04-25 16:57 | 54.62422 | -5.86526 | 24 ft | 11 kts | 210° |
| 2026-04-25 16:57 | 54.62289 | -5.86678 | 24 ft | 17 kts | 214° |
| 2026-04-25 16:57 | 54.62183 | -5.86805 | 24 ft | 20 kts | 214° |
| 2026-04-25 16:58 | 54.62057 | -5.86955 | 23 ft | 23 kts | 214° |
| 2026-04-25 16:58 | 54.61923 | -5.87116 | 25 ft | 18 kts | 214° |
| 2026-04-25 16:58 | 54.61841 | -5.87172 | 24 ft | 13 kts | 158° |
| 2026-04-25 16:58 | 54.61783 | -5.87050 | 23 ft | 11 kts | 124° |
| 2026-04-25 16:59 | 54.61717 | -5.87002 | 23 ft | 13 kts | 208° |
| 2026-04-25 16:59 | 54.61636 | -5.87099 | 23 ft | 15 kts | 214° |
| 2026-04-25 16:59 | 54.61585 | -5.87159 | 23 ft | 2 kts | 215° |
| 2026-04-25 16:59 | 54.61573 | -5.87173 | 23 ft | 1 kts | 215° |
| 2026-04-25 17:00 | 54.61562 | -5.87186 | 23 ft | 3 kts | 215° |
| 2026-04-25 17:00 | 54.61537 | -5.87217 | 23 ft | 6 kts | 215° |
| 2026-04-25 17:00 | 54.61495 | -5.87214 | 23 ft | 8 kts | 154° |
| 2026-04-25 17:00 | 54.61472 | -5.87196 | 26 ft | 2 kts | 155° |
| 2026-04-25 17:01 | 54.61461 | -5.87187 | 23 ft | 0 kts | 155° |
| 2026-04-25 17:01 | 54.61460 | -5.87187 | 23 ft | 0 kts | 155° |